Portada
METAR-TAF:

METAR-TAF

Aeroports :

Greater Kankakee Airport

Kankakee, Illinois, Estats Units d'Amèrica

latitud: 41-04-17N, longitud: 087-50-47W, altitud: 192 m

Observació

L'informe es va fer fa 7 minuts, a les 17:15 UTC
Vent 13 kt del Nord-Est amb ràfegues de 22 kt
Temperatura 13°C
Humitat 77%
Pressió 1022 hPa
Visibilitat: 16.1 km
Cel ennuvolat a una alçada de 1100 ft
Cel cobert a una alçada de 2300 ft

METAR: KIKK 201715Z AUTO 05013G22KT 10SM BKN011 OVC023 13/09 A3018 RMK AO2 T01260092

Hora: 12:22 (17:22 UTC)


TAF: manca

Observacions i pronòstics meteorològics de més de 4000 aeroports (METAR i TAF).

Les estacions disponibles són els punts grocs i vermells al mapa.

Posi el ratolí al punt desitjat per veure el nom de l'estació.

Feu clic per veure les observacions i els pronòstics meteorològics.

Per canviar el mapa: feu clic els botons verds amb una creu de color negre per apropar; al botó verd amb un guió per allunyar la imatge; o en les fletxes verdes per a mapes adjacents.


METAR-TAF: